Time;durP1;ratioP1;P1;durP2;ratioP2;P2;SDS_P1;SDS_P2;PMS_P1;PMS_P2;Temp;Humidity;BMP_temperature;BMP_pressure;BME280_temperature;BME280_humidity;BME280_pressure;Samples;Min_cycle;Max_cycle;Signal;HPM_P1;HPM_P2
2022/06/26 00:01:50;;;;;;;8.43;7.33;;;;;;;;;;761701;183;919137;-70
2022/06/26 00:04:15;;;;;;;8.88;6.20;;;;;;;;;;769476;181;918830;-71
2022/06/26 00:06:41;;;;;;;7.70;6.30;;;;;;;;;;761354;182;918793;-71
2022/06/26 00:09:07;;;;;;;10.10;7.20;;;;;;;;;;769346;180;918742;-71
2022/06/26 00:11:33;;;;;;;8.55;6.68;;;;;;;;;;779828;180;918597;-71
2022/06/26 00:13:59;;;;;;;8.33;6.23;;;;;;;;;;763374;181;919578;-71
2022/06/26 00:16:25;;;;;;;9.97;6.50;;;;;;;;;;737725;188;1218573;-71
2022/06/26 00:18:51;;;;;;;8.47;6.63;;;;;;;;;;744965;188;918748;-71
2022/06/26 00:21:16;;;;;;;6.63;5.93;;;;;;;;;;753469;183;1021628;-71
2022/06/26 00:23:42;;;;;;;7.68;6.75;;;;;;;;;;737590;188;1020918;-72
2022/06/26 00:26:08;;;;;;;11.80;7.10;;;;;;;;;;754255;187;917953;-72
2022/06/26 00:28:34;;;;;;;10.33;6.13;;;;;;;;;;763304;181;919485;-72
2022/06/26 00:31:01;;;;;;;12.77;8.13;;;;;;;;;;759845;180;918839;-73
2022/06/26 00:33:26;;;;;;;11.80;6.60;;;;;;;;;;755984;183;921134;-72
2022/06/26 00:35:52;;;;;;;7.10;6.10;;;;;;;;;;762513;181;917350;-72
2022/06/26 00:38:18;;;;;;;8.87;8.00;;;;;;;;;;760433;183;917424;-72
2022/06/26 00:40:43;;;;;;;10.93;6.22;;;;;;;;;;753019;181;2045242;-72
2022/06/26 00:43:09;;;;;;;11.77;6.13;;;;;;;;;;764467;181;916156;-72
2022/06/26 00:45:35;;;;;;;11.50;6.80;;;;;;;;;;773538;181;916911;-72
2022/06/26 00:48:01;;;;;;;9.77;5.00;;;;;;;;;;742795;185;917028;-72
2022/06/26 00:50:27;;;;;;;11.13;6.17;;;;;;;;;;743032;186;918234;-72
2022/06/26 00:52:54;;;;;;;10.43;5.57;;;;;;;;;;757680;179;1334324;-70
2022/06/26 00:55:19;;;;;;;9.00;6.03;;;;;;;;;;729918;190;919597;-71
2022/06/26 00:57:45;;;;;;;9.23;6.03;;;;;;;;;;758869;184;918553;-72
2022/06/26 01:00:12;;;;;;;9.70;5.80;;;;;;;;;;764524;181;918949;-71
2022/06/26 01:02:37;;;;;;;10.00;5.70;;;;;;;;;;765608;181;919562;-72
2022/06/26 01:05:04;;;;;;;11.90;6.20;;;;;;;;;;773117;181;918595;-71
2022/06/26 01:07:29;;;;;;;7.63;6.00;;;;;;;;;;782533;180;625035;-72
2022/06/26 01:09:55;;;;;;;16.30;7.50;;;;;;;;;;775747;181;627654;-72
2022/06/26 01:12:21;;;;;;;10.43;7.00;;;;;;;;;;775065;181;618461;-72
2022/06/26 01:14:47;;;;;;;19.30;7.20;;;;;;;;;;764596;180;917633;-71
2022/06/26 01:17:13;;;;;;;8.33;5.77;;;;;;;;;;762883;180;618738;-72
2022/06/26 01:19:39;;;;;;;17.20;5.50;;;;;;;;;;765483;181;1021284;-73
2022/06/26 01:22:04;;;;;;;14.55;6.37;;;;;;;;;;743493;186;919447;-71
2022/06/26 01:24:30;;;;;;;9.10;7.00;;;;;;;;;;765233;184;918662;-71
2022/06/26 01:26:56;;;;;;;14.10;7.27;;;;;;;;;;763252;181;918644;-72
2022/06/26 01:29:22;;;;;;;10.57;6.62;;;;;;;;;;761856;180;952730;-72
2022/06/26 01:31:48;;;;;;;12.33;6.93;;;;;;;;;;746353;189;894248;-70
2022/06/26 01:34:14;;;;;;;9.23;6.10;;;;;;;;;;768572;180;919694;-71
2022/06/26 01:36:40;;;;;;;10.80;6.30;;;;;;;;;;766982;180;918939;-71
2022/06/26 01:39:06;;;;;;;22.53;7.33;;;;;;;;;;770046;181;918760;-71
2022/06/26 01:41:31;;;;;;;8.97;5.83;;;;;;;;;;759679;181;920617;-71
2022/06/26 01:43:57;;;;;;;13.73;5.97;;;;;;;;;;765761;181;919208;-71
2022/06/26 01:46:23;;;;;;;22.27;7.68;;;;;;;;;;769040;180;919094;-69
2022/06/26 01:48:49;;;;;;;9.37;6.07;;;;;;;;;;762179;181;917572;-70
2022/06/26 01:51:15;;;;;;;10.50;6.13;;;;;;;;;;758331;182;920139;-71
2022/06/26 01:53:41;;;;;;;20.23;7.45;;;;;;;;;;757365;184;919851;-71
2022/06/26 01:56:07;;;;;;;15.70;7.57;;;;;;;;;;760245;184;921242;-71
2022/06/26 01:58:33;;;;;;;19.03;7.00;;;;;;;;;;757694;180;918613;-71
2022/06/26 02:00:59;;;;;;;13.17;8.17;;;;;;;;;;759565;180;921297;-71
2022/06/26 02:03:25;;;;;;;18.33;7.83;;;;;;;;;;764091;181;918572;-70
2022/06/26 02:05:50;;;;;;;10.33;7.83;;;;;;;;;;756410;184;919578;-70
2022/06/26 02:08:16;;;;;;;14.00;7.77;;;;;;;;;;758951;183;917954;-70
2022/06/26 02:15:45;;;;;;;30.60;10.70;;;;;;;;;;760774;182;919038;-73
2022/06/26 02:18:12;;;;;;;12.70;9.30;;;;;;;;;;761833;183;918145;-72
2022/06/26 02:20:37;;;;;;;14.00;8.73;;;;;;;;;;764504;181;919691;-72
2022/06/26 02:23:03;;;;;;;22.83;9.03;;;;;;;;;;757191;181;919379;-72
2022/06/26 02:25:29;;;;;;;16.03;9.20;;;;;;;;;;737448;185;919449;-71
2022/06/26 02:27:55;;;;;;;13.93;8.90;;;;;;;;;;739495;186;914981;-71
2022/06/26 02:30:21;;;;;;;21.90;10.27;;;;;;;;;;736998;188;915212;-71
2022/06/26 02:32:46;;;;;;;22.47;9.23;;;;;;;;;;764731;180;915928;-72
2022/06/26 02:35:12;;;;;;;20.53;9.90;;;;;;;;;;763116;180;919217;-71
2022/06/26 02:37:38;;;;;;;12.90;8.80;;;;;;;;;;769925;181;914408;-70
2022/06/26 02:40:04;;;;;;;39.23;11.30;;;;;;;;;;761370;181;919399;-72
2022/06/26 02:42:30;;;;;;;21.73;9.93;;;;;;;;;;760371;181;916867;-70
2022/06/26 02:44:56;;;;;;;15.68;9.35;;;;;;;;;;776154;178;915880;-70
2022/06/26 02:47:22;;;;;;;18.50;10.93;;;;;;;;;;775186;180;915356;-71
2022/06/26 02:49:48;;;;;;;12.40;9.50;;;;;;;;;;774728;180;915528;-71
2022/06/26 02:52:14;;;;;;;15.13;9.27;;;;;;;;;;773337;180;915378;-70
2022/06/26 02:54:40;;;;;;;22.53;10.50;;;;;;;;;;776603;180;916910;-70
2022/06/26 02:57:05;;;;;;;19.17;10.77;;;;;;;;;;762665;183;914002;-71
2022/06/26 02:59:31;;;;;;;19.13;11.07;;;;;;;;;;761807;181;914957;-70
2022/06/26 03:01:58;;;;;;;14.60;9.93;;;;;;;;;;764141;183;915186;-70
2022/06/26 03:04:23;;;;;;;15.10;10.00;;;;;;;;;;760184;180;916390;-70
2022/06/26 03:06:49;;;;;;;13.80;9.63;;;;;;;;;;759632;181;918595;-71
2022/06/26 03:09:15;;;;;;;18.97;9.60;;;;;;;;;;767404;181;915938;-70
2022/06/26 03:11:41;;;;;;;19.67;11.13;;;;;;;;;;756410;181;915756;-70
2022/06/26 03:14:06;;;;;;;14.43;9.55;;;;;;;;;;755716;181;915228;-70
2022/06/26 03:16:33;;;;;;;21.70;11.00;;;;;;;;;;764589;181;919030;-68
2022/06/26 03:18:59;;;;;;;22.43;10.00;;;;;;;;;;760753;180;917843;-72
2022/06/26 03:21:25;;;;;;;17.87;11.50;;;;;;;;;;753645;184;918241;-70
2022/06/26 03:26:22;;;;;;;16.80;11.87;;;;;;;;;;735663;189;919083;-70
2022/06/26 03:28:48;;;;;;;33.77;13.37;;;;;;;;;;761300;181;919308;-69
2022/06/26 03:31:14;;;;;;;23.43;10.40;;;;;;;;;;761822;182;919036;-70
2022/06/26 03:33:40;;;;;;;26.63;11.23;;;;;;;;;;767557;182;918526;-70
2022/06/26 03:36:08;;;;;;;19.87;11.50;;;;;;;;;;764144;181;883756;-71
2022/06/26 03:38:31;;;;;;;21.40;11.80;;;;;;;;;;768840;181;919250;-70
2022/06/26 03:40:57;;;;;;;19.70;12.82;;;;;;;;;;763529;183;919178;-71
2022/06/26 03:43:23;;;;;;;26.53;11.43;;;;;;;;;;766764;180;919120;-70
2022/06/26 03:45:49;;;;;;;16.50;10.00;;;;;;;;;;769229;181;918644;-71
2022/06/26 03:48:15;;;;;;;15.67;10.87;;;;;;;;;;756009;181;919472;-70
2022/06/26 03:50:41;;;;;;;16.87;11.93;;;;;;;;;;758201;181;1330312;-70
2022/06/26 03:53:07;;;;;;;25.77;13.40;;;;;;;;;;755780;182;918876;-70
2022/06/26 03:55:32;;;;;;;20.93;12.60;;;;;;;;;;760073;181;918192;-70
2022/06/26 03:57:58;;;;;;;19.27;12.93;;;;;;;;;;766364;182;919655;-70
2022/06/26 04:00:24;;;;;;;22.07;13.80;;;;;;;;;;759177;180;1021675;-70
2022/06/26 04:02:50;;;;;;;20.20;13.70;;;;;;;;;;767006;181;919125;-70
2022/06/26 04:05:16;;;;;;;30.03;14.23;;;;;;;;;;746418;186;918908;-70
2022/06/26 04:07:42;;;;;;;15.90;13.27;;;;;;;;;;753023;182;919280;-70
2022/06/26 04:10:08;;;;;;;27.47;16.50;;;;;;;;;;749690;186;918730;-70
2022/06/26 04:12:34;;;;;;;29.70;16.87;;;;;;;;;;774800;180;917596;-70
2022/06/26 04:14:59;;;;;;;26.55;17.95;;;;;;;;;;774144;181;919349;-70
2022/06/26 04:17:25;;;;;;;31.43;19.67;;;;;;;;;;765450;180;920449;-71
2022/06/26 04:19:51;;;;;;;29.47;19.30;;;;;;;;;;766577;180;919660;-70
2022/06/26 04:22:17;;;;;;;31.65;20.30;;;;;;;;;;769939;181;918907;-70
2022/06/26 04:24:43;;;;;;;28.80;19.50;;;;;;;;;;762613;180;918749;-69
2022/06/26 04:27:09;;;;;;;24.50;17.80;;;;;;;;;;772676;180;919250;-70
2022/06/26 04:29:35;;;;;;;26.27;19.27;;;;;;;;;;770766;181;918840;-71
2022/06/26 04:32:00;;;;;;;26.40;21.70;;;;;;;;;;772129;177;919199;-71
2022/06/26 04:34:26;;;;;;;39.97;23.80;;;;;;;;;;733354;188;1113139;-69
2022/06/26 04:36:52;;;;;;;32.53;23.10;;;;;;;;;;765627;181;918574;-69
2022/06/26 04:39:18;;;;;;;36.27;24.00;;;;;;;;;;767305;181;918985;-69
2022/06/26 04:41:44;;;;;;;36.07;24.83;;;;;;;;;;758395;181;920234;-71
2022/06/26 04:44:10;;;;;;;36.57;27.23;;;;;;;;;;756919;182;924545;-69
2022/06/26 04:46:36;;;;;;;34.60;24.50;;;;;;;;;;774949;181;923454;-70
2022/06/26 04:49:02;;;;;;;40.03;26.67;;;;;;;;;;773022;181;947875;-70
2022/06/26 04:51:28;;;;;;;32.73;24.80;;;;;;;;;;766159;182;918690;-70
2022/06/26 04:53:53;;;;;;;39.33;25.57;;;;;;;;;;769923;180;624477;-70
2022/06/26 04:56:19;;;;;;;31.57;25.07;;;;;;;;;;762597;180;919063;-70
2022/06/26 04:58:45;;;;;;;44.60;26.40;;;;;;;;;;764073;180;920396;-70
2022/06/26 05:01:11;;;;;;;36.53;26.77;;;;;;;;;;772817;180;919432;-70
2022/06/26 05:03:37;;;;;;;33.23;26.40;;;;;;;;;;768667;180;918200;-69
2022/06/26 05:06:03;;;;;;;34.30;25.60;;;;;;;;;;758730;181;916679;-70
2022/06/26 05:08:29;;;;;;;34.03;25.57;;;;;;;;;;772233;178;914083;-70
2022/06/26 05:10:54;;;;;;;28.10;23.20;;;;;;;;;;775934;180;616431;-70
2022/06/26 05:13:20;;;;;;;28.00;20.57;;;;;;;;;;771509;181;627101;-70
2022/06/26 05:15:47;;;;;;;22.90;18.43;;;;;;;;;;767535;181;625124;-71
2022/06/26 05:18:13;;;;;;;21.63;16.80;;;;;;;;;;744314;188;629805;-70
2022/06/26 05:20:39;;;;;;;17.63;15.50;;;;;;;;;;774511;180;638511;-69
2022/06/26 05:23:07;;;;;;;16.98;15.18;;;;;;;;;;761176;181;918811;-70
2022/06/26 05:25:32;;;;;;;17.20;13.68;;;;;;;;;;764099;181;918697;-69
2022/06/26 05:27:57;;;;;;;16.80;13.83;;;;;;;;;;768820;181;918384;-69
2022/06/26 05:30:23;;;;;;;18.90;13.90;;;;;;;;;;768518;181;917168;-71
2022/06/26 05:32:49;;;;;;;15.43;12.53;;;;;;;;;;735728;188;917134;-70
2022/06/26 05:35:15;;;;;;;13.10;11.50;;;;;;;;;;769774;180;908914;-68
2022/06/26 05:37:41;;;;;;;12.53;11.20;;;;;;;;;;770801;181;631599;-70
2022/06/26 05:40:07;;;;;;;12.70;11.03;;;;;;;;;;765386;180;919380;-69
2022/06/26 05:42:33;;;;;;;14.90;11.43;;;;;;;;;;773879;180;626958;-68
2022/06/26 05:44:59;;;;;;;14.80;10.93;;;;;;;;;;761572;181;919274;-69
2022/06/26 05:47:25;;;;;;;11.02;9.93;;;;;;;;;;766455;181;926454;-69
2022/06/26 05:49:51;;;;;;;11.90;9.90;;;;;;;;;;765033;181;919404;-69
2022/06/26 05:52:16;;;;;;;12.77;11.48;;;;;;;;;;769396;181;919426;-68
2022/06/26 05:54:42;;;;;;;10.03;9.03;;;;;;;;;;765447;181;919574;-68
2022/06/26 05:57:08;;;;;;;11.00;9.90;;;;;;;;;;757993;181;919138;-68
2022/06/26 05:59:34;;;;;;;9.97;8.50;;;;;;;;;;766392;182;623879;-68
2022/06/26 06:02:00;;;;;;;10.60;8.40;;;;;;;;;;744992;188;918589;-68
2022/06/26 06:04:26;;;;;;;9.60;8.70;;;;;;;;;;738400;188;917380;-68
2022/06/26 06:06:51;;;;;;;9.47;8.57;;;;;;;;;;773739;180;918483;-68
2022/06/26 06:09:18;;;;;;;7.10;6.40;;;;;;;;;;768196;180;908031;-68
2022/06/26 06:11:43;;;;;;;8.03;7.27;;;;;;;;;;767523;181;626325;-69
2022/06/26 06:14:09;;;;;;;18.30;8.43;;;;;;;;;;770521;181;623332;-69
2022/06/26 06:16:35;;;;;;;9.30;7.00;;;;;;;;;;762472;181;631638;-68
2022/06/26 06:19:01;;;;;;;8.30;7.40;;;;;;;;;;741742;187;622483;-70
2022/06/26 06:21:27;;;;;;;6.47;5.87;;;;;;;;;;764632;180;628332;-68
2022/06/26 06:23:53;;;;;;;8.83;7.93;;;;;;;;;;775930;180;617641;-70
2022/06/26 06:26:19;;;;;;;8.73;6.27;;;;;;;;;;774700;180;619191;-68
2022/06/26 06:28:44;;;;;;;8.00;7.20;;;;;;;;;;770930;181;641642;-69
2022/06/26 06:31:10;;;;;;;7.07;5.90;;;;;;;;;;772737;181;626175;-68
2022/06/26 06:33:36;;;;;;;9.43;6.73;;;;;;;;;;766980;181;636076;-68
2022/06/26 06:36:02;;;;;;;10.10;6.37;;;;;;;;;;765962;181;628587;-70
2022/06/26 06:38:28;;;;;;;9.38;7.15;;;;;;;;;;764378;180;626387;-69
2022/06/26 06:40:54;;;;;;;6.70;5.90;;;;;;;;;;767883;181;629057;-68
2022/06/26 06:43:20;;;;;;;8.33;5.83;;;;;;;;;;749749;186;629227;-68
2022/06/26 06:45:46;;;;;;;7.30;5.73;;;;;;;;;;747268;188;617585;-70
2022/06/26 06:48:12;;;;;;;7.30;5.53;;;;;;;;;;751938;185;636041;-69
2022/06/26 06:50:37;;;;;;;6.27;5.67;;;;;;;;;;749955;187;633181;-68
2022/06/26 06:53:03;;;;;;;6.93;6.23;;;;;;;;;;749453;185;630202;-68
2022/06/26 06:55:29;;;;;;;6.77;6.07;;;;;;;;;;773542;180;626932;-68
2022/06/26 06:57:55;;;;;;;8.63;5.93;;;;;;;;;;768479;180;630880;-69
2022/06/26 07:00:21;;;;;;;6.40;5.70;;;;;;;;;;769843;181;632948;-67
2022/06/26 07:02:47;;;;;;;5.77;5.23;;;;;;;;;;778132;180;614454;-68
2022/06/26 07:05:13;;;;;;;6.03;5.20;;;;;;;;;;768334;180;628759;-68
2022/06/26 07:07:39;;;;;;;5.87;5.27;;;;;;;;;;764412;180;627381;-69
2022/06/26 07:10:05;;;;;;;7.20;6.23;;;;;;;;;;767343;180;675753;-68
2022/06/26 07:12:30;;;;;;;6.67;5.67;;;;;;;;;;770412;180;621647;-68
2022/06/26 07:14:56;;;;;;;6.50;5.63;;;;;;;;;;773096;181;632622;-69
2022/06/26 07:17:22;;;;;;;5.23;4.60;;;;;;;;;;769448;181;618402;-69
2022/06/26 07:19:48;;;;;;;7.13;5.37;;;;;;;;;;775347;180;632390;-71
2022/06/26 07:22:14;;;;;;;6.03;5.43;;;;;;;;;;766935;180;743351;-69
2022/06/26 07:24:40;;;;;;;8.90;5.00;;;;;;;;;;768844;181;631853;-70
2022/06/26 07:27:05;;;;;;;8.60;6.23;;;;;;;;;;774043;180;920570;-69
2022/06/26 07:29:31;;;;;;;6.97;5.90;;;;;;;;;;763553;181;618912;-69
2022/06/26 07:31:57;;;;;;;5.90;5.20;;;;;;;;;;760538;180;626823;-71
2022/06/26 07:34:24;;;;;;;9.03;6.03;;;;;;;;;;747872;187;621553;-69
2022/06/26 07:36:49;;;;;;;7.77;6.03;;;;;;;;;;775614;182;622305;-73
2022/06/26 07:39:15;;;;;;;7.90;6.00;;;;;;;;;;776715;180;626863;-69
2022/06/26 07:41:41;;;;;;;5.60;5.00;;;;;;;;;;765480;181;628656;-69
2022/06/26 07:44:07;;;;;;;8.00;7.03;;;;;;;;;;751935;186;614482;-71
2022/06/26 07:46:33;;;;;;;7.07;6.03;;;;;;;;;;766635;182;642975;-69
2022/06/26 07:48:58;;;;;;;7.73;6.43;;;;;;;;;;769705;181;632334;-69
2022/06/26 07:51:24;;;;;;;8.20;6.07;;;;;;;;;;775388;181;619962;-72
2022/06/26 07:53:50;;;;;;;6.90;5.70;;;;;;;;;;763143;181;625086;-70
2022/06/26 07:56:19;;;;;;;5.40;4.90;;;;;;;;;;775616;180;644697;-68
2022/06/26 07:58:45;;;;;;;7.40;6.40;;;;;;;;;;769528;180;631112;-72
2022/06/26 08:01:11;;;;;;;9.27;6.70;;;;;;;;;;772295;182;629257;-69
2022/06/26 08:03:37;;;;;;;5.87;5.27;;;;;;;;;;767030;181;634963;-70
2022/06/26 08:06:02;;;;;;;6.33;5.37;;;;;;;;;;770639;181;629791;-69
2022/06/26 08:08:28;;;;;;;6.70;5.67;;;;;;;;;;775331;180;614720;-69
2022/06/26 08:10:54;;;;;;;6.90;6.10;;;;;;;;;;770089;181;619994;-68
2022/06/26 08:13:20;;;;;;;10.20;6.83;;;;;;;;;;765627;181;626324;-69
2022/06/26 08:15:46;;;;;;;11.00;6.20;;;;;;;;;;771260;181;625719;-70
2022/06/26 08:18:12;;;;;;;8.93;6.07;;;;;;;;;;763402;181;639839;-69
2022/06/26 08:20:38;;;;;;;7.23;5.80;;;;;;;;;;748079;186;626349;-69
2022/06/26 08:23:03;;;;;;;6.70;5.63;;;;;;;;;;769665;181;641258;-73
2022/06/26 08:25:29;;;;;;;6.50;5.80;;;;;;;;;;776733;181;628669;-73
2022/06/26 08:27:55;;;;;;;7.57;5.47;;;;;;;;;;768427;181;632544;-71
2022/06/26 08:30:21;;;;;;;8.07;6.00;;;;;;;;;;765176;181;629726;-70
2022/06/26 08:32:47;;;;;;;7.00;6.30;;;;;;;;;;769035;181;626979;-69
2022/06/26 08:35:13;;;;;;;7.03;6.27;;;;;;;;;;770149;181;626548;-70
2022/06/26 08:37:39;;;;;;;6.80;5.90;;;;;;;;;;769269;181;627768;-69
2022/06/26 08:40:05;;;;;;;8.00;6.00;;;;;;;;;;773945;180;642273;-70
2022/06/26 08:42:31;;;;;;;9.33;5.23;;;;;;;;;;770547;179;655218;-70
2022/06/26 08:44:57;;;;;;;9.30;5.47;;;;;;;;;;773596;180;624233;-69
2022/06/26 08:47:23;;;;;;;10.77;5.50;;;;;;;;;;769599;180;634267;-70
2022/06/26 08:49:48;;;;;;;7.00;5.63;;;;;;;;;;768742;180;634880;-69
2022/06/26 08:52:15;;;;;;;14.43;5.57;;;;;;;;;;770596;180;637639;-70
2022/06/26 08:54:40;;;;;;;8.30;5.43;;;;;;;;;;768884;180;619528;-71
2022/06/26 08:57:06;;;;;;;7.60;5.10;;;;;;;;;;772578;181;619153;-69
2022/06/26 08:59:32;;;;;;;7.33;4.53;;;;;;;;;;770265;181;624266;-70
2022/06/26 09:01:58;;;;;;;7.50;4.60;;;;;;;;;;769642;181;615848;-70
2022/06/26 09:04:24;;;;;;;10.33;5.13;;;;;;;;;;772537;181;632508;-70
2022/06/26 09:06:49;;;;;;;8.57;5.37;;;;;;;;;;770872;180;625959;-69
2022/06/26 09:09:15;;;;;;;6.80;6.10;;;;;;;;;;773042;180;614391;-71
2022/06/26 09:11:41;;;;;;;5.83;5.00;;;;;;;;;;770704;180;635558;-69
2022/06/26 09:14:07;;;;;;;10.53;5.97;;;;;;;;;;764168;181;619406;-69
2022/06/26 09:16:33;;;;;;;6.10;4.53;;;;;;;;;;740474;188;633084;-70
2022/06/26 09:19:05;;;;;;;11.00;5.80;;;;;;;;;;771777;181;646240;-68
2022/06/26 09:21:31;;;;;;;7.67;5.50;;;;;;;;;;771560;181;630264;-70
2022/06/26 09:23:56;;;;;;;6.03;4.67;;;;;;;;;;770499;181;628150;-69
2022/06/26 09:26:22;;;;;;;5.83;4.67;;;;;;;;;;767830;181;789467;-71
2022/06/26 09:28:48;;;;;;;6.23;5.63;;;;;;;;;;767670;181;628984;-70
2022/06/26 09:31:14;;;;;;;8.77;5.40;;;;;;;;;;778935;177;626058;-72
2022/06/26 09:33:40;;;;;;;9.00;5.20;;;;;;;;;;769949;180;636317;-70
2022/06/26 09:36:06;;;;;;;5.97;5.37;;;;;;;;;;769239;180;631059;-71
2022/06/26 09:38:32;;;;;;;7.60;5.00;;;;;;;;;;772932;180;624510;-70
2022/06/26 09:40:58;;;;;;;7.00;4.60;;;;;;;;;;770927;180;618386;-71
2022/06/26 09:43:25;;;;;;;7.77;5.63;;;;;;;;;;769843;180;634427;-71
2022/06/26 09:45:52;;;;;;;10.30;5.37;;;;;;;;;;772389;181;625169;-70
2022/06/26 09:48:18;;;;;;;6.00;5.40;;;;;;;;;;771543;181;631638;-72
2022/06/26 09:50:43;;;;;;;7.60;5.77;;;;;;;;;;766592;181;634030;-71
2022/06/26 09:53:09;;;;;;;8.47;5.67;;;;;;;;;;739632;185;633523;-71
2022/06/26 09:55:35;;;;;;;5.70;5.10;;;;;;;;;;742852;183;640458;-73
2022/06/26 09:58:01;;;;;;;7.30;5.10;;;;;;;;;;748295;186;636198;-72
2022/06/26 10:00:29;;;;;;;6.70;4.50;;;;;;;;;;750217;186;633729;-70
2022/06/26 10:07:56;;;;;;;8.83;5.50;;;;;;;;;;770759;181;635446;-71
2022/06/26 10:10:22;;;;;;;6.67;5.20;;;;;;;;;;771708;181;628886;-70
2022/06/26 10:12:48;;;;;;;6.90;5.30;;;;;;;;;;775539;180;634810;-71
2022/06/26 10:15:14;;;;;;;6.80;5.30;;;;;;;;;;767374;181;719735;-74
2022/06/26 10:17:40;;;;;;;5.93;4.93;;;;;;;;;;769771;180;634055;-73
2022/06/26 10:20:08;;;;;;;11.33;5.20;;;;;;;;;;773714;181;630522;-71
2022/06/26 10:22:37;;;;;;;7.60;5.10;;;;;;;;;;770571;179;629466;-71
2022/06/26 10:25:03;;;;;;;6.33;5.03;;;;;;;;;;767667;181;645049;-72
2022/06/26 10:27:29;;;;;;;5.87;4.70;;;;;;;;;;769010;180;635967;-75
2022/06/26 10:30:00;;;;;;;5.53;4.30;;;;;;;;;;773593;181;625339;-71
2022/06/26 10:32:26;;;;;;;5.90;5.30;;;;;;;;;;770731;181;617839;-71
2022/06/26 10:34:54;;;;;;;6.00;4.27;;;;;;;;;;769324;181;628827;-73
2022/06/26 10:37:20;;;;;;;5.70;5.07;;;;;;;;;;765149;181;637897;-71
2022/06/26 10:39:45;;;;;;;6.37;4.30;;;;;;;;;;767106;180;632075;-74
2022/06/26 10:44:49;;;;;;;7.37;4.60;;;;;;;;;;769053;180;627060;-73
2022/06/26 10:47:15;;;;;;;7.33;4.43;;;;;;;;;;769571;181;631285;-72
2022/06/26 10:49:45;;;;;;;11.13;4.70;;;;;;;;;;772700;181;630548;-73
2022/06/26 10:52:11;;;;;;;7.17;5.60;;;;;;;;;;766909;180;742029;-74
2022/06/26 10:54:37;;;;;;;6.30;5.00;;;;;;;;;;769131;181;628919;-72
2022/06/26 10:57:17;;;;;;;6.93;4.70;;;;;;;;;;772439;180;613191;-71
2022/06/26 10:59:43;;;;;;;5.40;4.53;;;;;;;;;;778429;180;620679;-72
2022/06/26 11:02:10;;;;;;;6.40;4.30;;;;;;;;;;770141;180;623825;-71
2022/06/26 11:04:41;;;;;;;5.17;4.47;;;;;;;;;;769717;180;635428;-71
2022/06/26 11:07:07;;;;;;;6.30;4.47;;;;;;;;;;773609;180;630916;-73
2022/06/26 11:09:33;;;;;;;5.10;4.50;;;;;;;;;;773565;180;630263;-71
2022/06/26 11:11:59;;;;;;;5.00;4.10;;;;;;;;;;767998;180;626260;-70
2022/06/26 11:14:25;;;;;;;5.90;4.67;;;;;;;;;;768739;180;634769;-70
2022/06/26 11:16:51;;;;;;;5.10;4.33;;;;;;;;;;769455;181;632405;-71
2022/06/26 11:19:19;;;;;;;6.93;4.37;;;;;;;;;;740231;185;633097;-75
2022/06/26 11:21:45;;;;;;;5.97;4.70;;;;;;;;;;768234;180;629629;-71
2022/06/26 11:24:11;;;;;;;8.43;5.13;;;;;;;;;;768665;181;612877;-72
2022/06/26 11:26:37;;;;;;;7.40;4.70;;;;;;;;;;764569;181;723496;-74
2022/06/26 11:29:03;;;;;;;5.60;4.00;;;;;;;;;;746120;186;637636;-72
2022/06/26 11:31:29;;;;;;;5.43;3.80;;;;;;;;;;746209;188;637752;-72
2022/06/26 11:33:54;;;;;;;4.30;3.87;;;;;;;;;;774457;180;626876;-73
2022/06/26 11:36:22;;;;;;;5.47;4.07;;;;;;;;;;769733;181;629472;-70
2022/06/26 11:38:46;;;;;;;6.63;4.40;;;;;;;;;;769222;180;629773;-73
2022/06/26 11:41:12;;;;;;;5.30;3.87;;;;;;;;;;774527;181;627844;-72
2022/06/26 11:43:38;;;;;;;7.43;4.80;;;;;;;;;;770097;180;621108;-73
2022/06/26 11:46:04;;;;;;;6.37;3.87;;;;;;;;;;768150;181;617128;-71
2022/06/26 11:48:30;;;;;;;4.63;4.00;;;;;;;;;;768265;181;631029;-70
2022/06/26 11:50:55;;;;;;;7.50;4.33;;;;;;;;;;766072;181;619204;-70
2022/06/26 11:53:23;;;;;;;7.93;4.70;;;;;;;;;;767414;181;627229;-76
2022/06/26 11:55:49;;;;;;;5.63;4.17;;;;;;;;;;769593;181;669582;-73
2022/06/26 11:58:16;;;;;;;5.63;3.90;;;;;;;;;;772747;181;614743;-75
2022/06/26 12:00:41;;;;;;;7.00;4.47;;;;;;;;;;737521;188;623698;-73
2022/06/26 12:03:07;;;;;;;9.03;4.63;;;;;;;;;;770264;181;630532;-75
2022/06/26 12:05:33;;;;;;;10.17;4.40;;;;;;;;;;771045;181;616272;-74
2022/06/26 12:07:59;;;;;;;5.83;4.40;;;;;;;;;;766311;181;616699;-72
2022/06/26 12:10:28;;;;;;;4.83;4.30;;;;;;;;;;740367;187;627455;-70
2022/06/26 12:12:54;;;;;;;6.37;4.27;;;;;;;;;;738786;188;626367;-71
2022/06/26 12:15:20;;;;;;;6.73;4.00;;;;;;;;;;743112;186;627610;-74
2022/06/26 12:17:52;;;;;;;7.73;4.40;;;;;;;;;;765055;180;622985;-72
2022/06/26 12:20:18;;;;;;;5.60;3.97;;;;;;;;;;767709;180;626677;-73
2022/06/26 12:22:44;;;;;;;6.60;3.73;;;;;;;;;;744002;187;648294;-73
2022/06/26 12:25:09;;;;;;;6.77;4.80;;;;;;;;;;771008;180;628189;-73
2022/06/26 12:27:35;;;;;;;7.17;4.27;;;;;;;;;;772785;180;624659;-70
2022/06/26 12:30:01;;;;;;;6.00;4.40;;;;;;;;;;768688;180;624452;-70
2022/06/26 12:32:27;;;;;;;4.63;4.13;;;;;;;;;;776896;181;626911;-73
2022/06/26 12:34:53;;;;;;;8.70;4.20;;;;;;;;;;770932;181;635033;-69
2022/06/26 12:37:19;;;;;;;7.93;4.80;;;;;;;;;;766527;181;637098;-70
2022/06/26 12:39:46;;;;;;;7.33;4.40;;;;;;;;;;741456;188;613578;-69
2022/06/26 12:42:11;;;;;;;5.80;4.50;;;;;;;;;;747262;187;635931;-71
2022/06/26 12:44:37;;;;;;;7.77;4.57;;;;;;;;;;733859;189;627202;-71
2022/06/26 12:47:02;;;;;;;6.07;4.20;;;;;;;;;;745155;188;630994;-71
2022/06/26 12:49:28;;;;;;;5.07;3.80;;;;;;;;;;769946;180;619558;-71
2022/06/26 12:51:54;;;;;;;6.70;4.20;;;;;;;;;;768136;180;618737;-68
2022/06/26 12:54:20;;;;;;;4.97;3.70;;;;;;;;;;768241;181;637877;-70
2022/06/26 12:56:46;;;;;;;4.97;4.03;;;;;;;;;;775454;180;660378;-71
2022/06/26 12:59:12;;;;;;;4.73;3.43;;;;;;;;;;771069;180;622598;-68
2022/06/26 13:01:38;;;;;;;8.30;4.37;;;;;;;;;;767488;181;638373;-69
2022/06/26 13:04:04;;;;;;;5.67;4.63;;;;;;;;;;774709;180;629252;-70
2022/06/26 13:06:30;;;;;;;6.63;4.50;;;;;;;;;;768320;181;632133;-71
2022/06/26 13:08:56;;;;;;;8.80;5.23;;;;;;;;;;767408;181;635528;-69
2022/06/26 13:11:23;;;;;;;5.43;4.27;;;;;;;;;;770954;181;649103;-70
